KMKC/MKC METAR and TAF weather

Enter ICAO airport designator
Station Type Date Time Source
KMKC METAR 2020/01/21 14:54 UTC NOAA

KMKC 211454Z 14008KT 5SM HZ OVC011 M10/M13 A3057 RMK AO2 SLP367 T11001128 56012


Station Type Date Time Source
KMKC Decoded METAR 2020/01/21 14:54 UTC NOAA

KANSAS CITY DOWNTOWN AIRPORT , MO, United States (KMKC) 39-07N 094-36W 227M
Jan 21, 2020 - 09:54 AM EST / 2020.01.21 1454 UTC
Wind: from the SE (140 degrees) at 9 MPH (8 KT):0
Visibility: 5 mile(s):0
Sky conditions: overcast
Weather: haze
Temperature: 14.0 F (-10.0 C)
Windchill: 1 F (-17 C):1
Dew Point: 9.0 F (-12.8 C)
Relative Humidity: 79%
Pressure (altimeter): 30.57 in. Hg (1035 hPa)
Pressure tendency: 0.04 inches (1.2 hPa) lower than three hours ago
ob: KMKC 211454Z 14008KT 5SM HZ OVC011 M10/M13 A3057 RMK AO2 SLP367 T11001128 56012
cycle: 15

Station Type Date Time Source
KMKC TAF 2020/01/21 12:58 UTC NOAA

TAF
AMD KMKC 211158Z 2112/2212 14005KT P6SM BKN015
TEMPO 2112/2115 6SM -SN
FM211600 17012KT P6SM SCT015 SCT250
FM220000 18012KT P6SM BKN200
FM220400 18012KT P6SM SCT030 BKN150 WS020/21045KT

Example: see airport list